Terminal Aerodrome Forecast
Issued by NWS

Home | Current Version | Previous Version | Text Only | Print | Product List | Glossary On
Versions: 1 2 3 4 5 6 7 8 9 10 11 12 13 14 15
000
FTUS41 KPBZ 032059 AAA
TAFHLG
TAF AMD
KHLG 032059Z 0321/0418 30005KT P6SM VCSH BKN050
      TEMPO 0321/0323 2SM -TSRA BKN015CB
     FM040000 VRB03KT P6SM SCT050
     FM040700 00000KT 3SM BR SKC
     FM040900 00000KT 1SM BR SKC
     FM041400 10003KT P6SM SKC=

USA.gov is the U.S. government's official web portal to all federal, state and local government web resources and services.